createdAt,value
2023-04-10T00:00:58.014Z,92.70
2023-04-10T00:03:25.219Z,92.70
2023-04-10T00:05:54.749Z,92.80
2023-04-10T00:08:25.355Z,92.80
2023-04-10T00:10:54.557Z,92.80
2023-04-10T00:13:21.466Z,92.80
2023-04-10T00:15:48.607Z,92.80
2023-04-10T00:18:15.490Z,92.90
2023-04-10T00:20:43.705Z,92.90
2023-04-10T00:23:10.778Z,92.90
2023-04-10T00:25:37.697Z,92.90
2023-04-10T00:28:04.593Z,92.90
2023-04-10T00:30:31.549Z,93.00
2023-04-10T00:32:58.746Z,93.00
2023-04-10T00:35:25.634Z,93.00
2023-04-10T00:37:54.591Z,93.00
2023-04-10T00:40:21.994Z,93.10
2023-04-10T00:42:48.769Z,93.10
2023-04-10T00:45:15.783Z,93.10
2023-04-10T00:47:42.706Z,93.10
2023-04-10T00:50:10.076Z,93.10
2023-04-10T00:52:37.665Z,93.10
2023-04-10T00:55:05.695Z,93.10
2023-04-10T00:57:33.375Z,93.10
2023-04-10T01:00:00.805Z,93.10
2023-04-10T01:02:27.718Z,93.10
2023-04-10T01:04:58.470Z,93.10
2023-04-10T01:08:00.354Z,93.10
2023-04-10T01:10:36.670Z,93.10
2023-04-10T01:13:05.798Z,93.10
2023-04-10T01:16:16.784Z,93.10
2023-04-10T01:19:12.209Z,93.00
2023-04-10T01:21:40.593Z,93.00
2023-04-10T01:24:26.263Z,92.90
2023-04-10T01:27:08.193Z,92.90
2023-04-10T01:29:36.933Z,92.90
2023-04-10T01:32:13.830Z,92.90
2023-04-10T01:34:51.041Z,92.90
2023-04-10T01:37:27.676Z,92.90
2023-04-10T01:40:08.852Z,93.00
2023-04-10T01:42:43.174Z,93.00
2023-04-10T01:45:18.274Z,93.10
2023-04-10T01:47:45.547Z,93.10
2023-04-10T01:50:12.779Z,93.10
2023-04-10T01:52:40.804Z,93.10
2023-04-10T01:55:09.364Z,93.10
2023-04-10T01:57:36.502Z,93.20
2023-04-10T02:00:07.403Z,93.20
2023-04-10T02:02:34.840Z,93.30
2023-04-10T02:05:01.936Z,93.40
2023-04-10T02:07:44.137Z,93.30
2023-04-10T02:10:18.524Z,93.30
2023-04-10T02:12:56.659Z,93.20
2023-04-10T02:15:26.720Z,93.20
2023-04-10T02:17:56.536Z,93.20
2023-04-10T02:20:24.551Z,93.20
2023-04-10T02:22:53.274Z,93.20
2023-04-10T02:25:20.592Z,93.30
2023-04-10T02:27:47.462Z,93.30
2023-04-10T02:30:14.308Z,93.40
2023-04-10T02:32:42.047Z,93.40
2023-04-10T02:35:09.165Z,93.40
2023-04-10T02:37:37.148Z,93.40
2023-04-10T02:40:04.457Z,93.40
2023-04-10T02:42:31.259Z,93.50
2023-04-10T02:44:58.040Z,93.40
2023-04-10T02:47:24.968Z,93.40
2023-04-10T02:49:51.871Z,93.40
2023-04-10T02:52:18.890Z,93.40
2023-04-10T02:54:46.364Z,93.40
2023-04-10T02:57:13.185Z,93.40
2023-04-10T02:59:40.066Z,93.40
2023-04-10T03:02:07.576Z,93.40
2023-04-10T03:04:34.813Z,93.40
2023-04-10T03:07:01.907Z,93.40
2023-04-10T03:09:28.871Z,93.40
2023-04-10T03:11:55.705Z,93.40
2023-04-10T03:14:22.814Z,93.40
2023-04-10T03:16:50.521Z,93.40
2023-04-10T03:19:17.468Z,93.40
2023-04-10T03:21:45.376Z,93.40
2023-04-10T03:24:12.310Z,93.50
2023-04-10T03:26:39.269Z,93.50
2023-04-10T03:29:06.257Z,93.50
2023-04-10T03:31:33.161Z,93.60
2023-04-10T03:34:00.005Z,93.60
2023-04-10T03:36:27.578Z,93.60
2023-04-10T03:38:54.421Z,93.60
2023-04-10T03:41:22.644Z,93.70
2023-04-10T03:43:51.078Z,93.70
2023-04-10T03:46:17.924Z,93.80
2023-04-10T03:48:44.747Z,93.80
2023-04-10T03:51:11.694Z,93.90
2023-04-10T03:53:38.560Z,93.90
2023-04-10T03:56:05.721Z,93.90
2023-04-10T03:58:32.596Z,93.90
2023-04-10T04:00:59.482Z,94.00
2023-04-10T04:03:26.722Z,94.00
2023-04-10T04:05:53.764Z,94.00
2023-04-10T04:08:20.597Z,94.10
2023-04-10T04:10:47.447Z,94.10
2023-04-10T04:13:14.342Z,94.20
2023-04-10T04:15:42.369Z,94.20
2023-04-10T04:18:09.678Z,94.20
2023-04-10T04:20:36.563Z,94.20
2023-04-10T04:23:03.348Z,94.20
2023-04-10T04:25:30.340Z,94.20
2023-04-10T04:27:57.633Z,94.30
2023-04-10T04:30:24.470Z,94.30
2023-04-10T04:32:51.408Z,94.30
2023-04-10T04:35:18.318Z,94.30
2023-04-10T04:37:46.114Z,94.30
2023-04-10T04:40:13.055Z,94.30
2023-04-10T04:42:39.913Z,94.30
2023-04-10T04:45:07.540Z,94.30
2023-04-10T04:47:35.527Z,94.30
2023-04-10T04:50:02.570Z,94.30
2023-04-10T04:52:29.690Z,94.30
2023-04-10T04:54:58.673Z,94.30
2023-04-10T04:57:25.563Z,94.30
2023-04-10T04:59:52.648Z,94.20
2023-04-10T05:02:22.488Z,94.20
2023-04-10T05:04:49.586Z,94.30
2023-04-10T05:07:16.387Z,94.20
2023-04-10T05:09:43.364Z,94.20
2023-04-10T05:12:10.670Z,94.20
2023-04-10T05:14:37.513Z,94.10
2023-04-10T05:17:04.502Z,94.00
2023-04-10T05:19:31.396Z,93.90
2023-04-10T05:21:58.223Z,93.80
2023-04-10T05:24:25.391Z,93.60
2023-04-10T05:26:52.306Z,93.60
2023-04-10T05:29:19.159Z,93.50
2023-04-10T05:31:46.583Z,93.50
2023-04-10T05:34:13.446Z,93.30
2023-04-10T05:36:40.321Z,93.20
2023-04-10T05:39:07.192Z,93.10
2023-04-10T05:41:33.994Z,93.00
2023-04-10T05:44:00.939Z,92.90
2023-04-10T05:46:28.306Z,92.90
2023-04-10T05:48:55.425Z,92.80
2023-04-10T05:51:23.509Z,92.40
2023-04-10T05:53:51.306Z,92.40
2023-04-10T05:56:18.577Z,92.30
2023-04-10T05:58:45.395Z,92.30
2023-04-10T06:01:13.542Z,92.20
2023-04-10T06:03:40.609Z,92.00
2023-04-10T06:06:08.314Z,91.80
2023-04-10T06:08:35.301Z,91.80
2023-04-10T06:11:02.246Z,91.50
2023-04-10T06:13:29.119Z,91.30
2023-04-10T06:15:56.201Z,91.30
2023-04-10T06:18:23.023Z,91.10
2023-04-10T06:20:49.852Z,91.00
2023-04-10T06:23:16.946Z,90.80
2023-04-10T06:25:44.088Z,90.70
2023-04-10T06:28:10.938Z,90.50
2023-04-10T06:30:37.858Z,90.50
2023-04-10T06:33:04.686Z,90.40
2023-04-10T06:35:31.929Z,90.40
2023-04-10T06:37:58.735Z,90.30
2023-04-10T06:40:25.552Z,90.30
2023-04-10T06:42:52.329Z,90.20
2023-04-10T06:45:19.377Z,90.20
2023-04-10T06:47:46.162Z,90.20
2023-04-10T06:50:13.053Z,90.10
2023-04-10T06:52:39.841Z,90.00
2023-04-10T06:55:07.309Z,89.80
2023-04-10T06:57:34.096Z,90.00
2023-04-10T07:00:00.919Z,89.90
2023-04-10T07:02:27.934Z,89.70
2023-04-10T07:04:55.091Z,89.50
2023-04-10T07:07:22.025Z,89.20
2023-04-10T07:09:48.856Z,89.00
2023-04-10T07:12:16.568Z,89.10
2023-04-10T07:14:43.480Z,89.10
2023-04-10T07:17:10.431Z,88.70
2023-04-10T07:19:38.242Z,88.30
2023-04-10T07:22:05.085Z,88.00
2023-04-10T07:24:32.745Z,88.10
2023-04-10T07:27:01.517Z,88.00
2023-04-10T07:29:28.391Z,87.70
2023-04-10T07:31:55.628Z,87.30
2023-04-10T07:34:22.791Z,87.60
2023-04-10T07:36:50.039Z,87.90
2023-04-10T07:39:16.988Z,87.80
2023-04-10T07:41:44.094Z,87.60
2023-04-10T07:44:11.412Z,87.30
2023-04-10T07:46:38.677Z,87.20
2023-04-10T07:49:08.440Z,87.30
2023-04-10T07:51:35.646Z,87.10
2023-04-10T07:54:04.100Z,86.80
2023-04-10T07:56:33.629Z,86.50
2023-04-10T07:59:03.550Z,86.20
2023-04-10T08:01:30.537Z,86.20
2023-04-10T08:03:57.880Z,86.00
2023-04-10T08:06:25.063Z,85.80
2023-04-10T08:08:55.034Z,85.70
2023-04-10T08:11:23.476Z,86.00
2023-04-10T08:13:52.049Z,85.60
2023-04-10T08:16:26.510Z,85.50
2023-04-10T08:18:54.832Z,85.20
2023-04-10T08:21:22.291Z,85.10
2023-04-10T08:23:53.230Z,85.10
2023-04-10T08:26:21.321Z,84.90
2023-04-10T08:28:53.390Z,84.80
2023-04-10T08:31:22.284Z,84.70
2023-04-10T08:33:49.779Z,84.50
2023-04-10T08:36:19.158Z,84.50
2023-04-10T08:38:47.163Z,84.50
2023-04-10T08:41:15.986Z,84.50
2023-04-10T08:43:44.044Z,84.20
2023-04-10T08:46:12.020Z,83.40
2023-04-10T08:49:01.938Z,83.60
2023-04-10T08:51:34.221Z,82.30
2023-04-10T08:54:07.943Z,82.60
2023-04-10T08:56:37.593Z,81.30
2023-04-10T08:59:05.390Z,81.10
2023-04-10T09:01:32.340Z,81.40
2023-04-10T09:03:59.945Z,81.50
2023-04-10T09:06:27.520Z,82.10
2023-04-10T09:08:54.344Z,81.30
2023-04-10T09:11:21.486Z,81.70
2023-04-10T09:13:48.298Z,81.70
2023-04-10T09:16:15.345Z,81.00
2023-04-10T09:18:43.085Z,81.00
2023-04-10T09:21:14.301Z,79.50
2023-04-10T09:23:45.405Z,79.20
2023-04-10T09:26:32.776Z,79.00
2023-04-10T09:29:07.867Z,79.60
2023-04-10T09:31:36.896Z,79.40
2023-04-10T09:34:22.856Z,76.90
2023-04-10T09:36:57.241Z,76.50
2023-04-10T09:39:43.031Z,75.80
2023-04-10T09:42:11.608Z,77.00
2023-04-10T09:44:39.850Z,77.50
2023-04-10T09:47:18.209Z,76.30
2023-04-10T09:49:50.072Z,75.80
2023-04-10T09:52:36.652Z,74.70
2023-04-10T09:55:10.314Z,73.30
2023-04-10T09:57:37.155Z,72.80
2023-04-10T10:00:07.203Z,73.40
2023-04-10T10:02:41.392Z,72.30
2023-04-10T10:05:10.576Z,71.80
2023-04-10T10:07:38.724Z,71.00
2023-04-10T10:10:07.403Z,71.50
2023-04-10T10:12:39.920Z,73.00
2023-04-10T10:15:14.285Z,71.40
2023-04-10T10:17:56.376Z,72.30
2023-04-10T10:20:24.934Z,71.20
2023-04-10T10:22:52.848Z,69.90
2023-04-10T10:25:22.443Z,69.60
2023-04-10T10:27:52.493Z,69.70
2023-04-10T10:30:28.782Z,69.70
2023-04-10T10:32:59.511Z,69.60
2023-04-10T10:35:34.434Z,69.50
2023-04-10T10:38:04.040Z,69.40
2023-04-10T10:40:41.534Z,68.50
2023-04-10T10:43:32.634Z,67.90
2023-04-10T10:46:11.576Z,67.70
2023-04-10T10:48:38.443Z,67.40
2023-04-10T10:51:05.623Z,67.00
2023-04-10T10:53:41.143Z,67.30
2023-04-10T10:56:19.964Z,66.40
2023-04-10T10:58:56.055Z,65.40
2023-04-10T11:01:24.011Z,66.10
2023-04-10T11:03:51.299Z,66.00
2023-04-10T11:06:22.917Z,67.00
2023-04-10T11:08:53.597Z,66.20
2023-04-10T11:11:24.745Z,66.00
2023-04-10T11:13:57.354Z,66.30
2023-04-10T11:16:30.024Z,66.40
2023-04-10T11:22:08.357Z,65.90
2023-04-10T11:24:59.026Z,65.80
2023-04-10T11:27:48.679Z,65.90
2023-04-10T11:30:35.985Z,65.80
2023-04-10T11:33:04.749Z,66.10
2023-04-10T11:35:33.917Z,65.80
2023-04-10T11:38:30.741Z,66.60
2023-04-10T11:41:06.722Z,66.30
2023-04-10T11:43:35.353Z,65.90
2023-04-10T11:46:08.007Z,66.00
2023-04-10T11:48:37.034Z,66.10
2023-04-10T11:51:08.765Z,66.20
2023-04-10T11:53:35.616Z,65.60
2023-04-10T11:56:04.758Z,66.20
2023-04-10T11:58:32.552Z,66.20
2023-04-10T12:01:01.317Z,66.50
2023-04-10T12:03:46.680Z,66.00
2023-04-10T12:06:14.876Z,66.40
2023-04-10T12:08:47.784Z,66.20
2023-04-10T12:11:17.396Z,66.20
2023-04-10T12:13:44.236Z,66.10
2023-04-10T12:16:11.935Z,65.30
2023-04-10T12:18:39.237Z,65.60
2023-04-10T12:21:11.634Z,65.30
2023-04-10T12:23:39.317Z,65.10
2023-04-10T12:26:14.521Z,65.90
2023-04-10T12:28:50.859Z,65.80
2023-04-10T12:31:17.776Z,65.50
2023-04-10T12:33:48.024Z,64.70
2023-04-10T12:36:35.281Z,64.60
2023-04-10T12:39:21.483Z,64.10
2023-04-10T12:41:48.339Z,64.40
2023-04-10T12:44:15.353Z,64.30
2023-04-10T12:46:43.456Z,64.20
2023-04-10T12:49:15.504Z,64.10
2023-04-10T12:51:43.701Z,64.10
2023-04-10T12:54:10.547Z,64.40
2023-04-10T12:56:45.123Z,64.00
2023-04-10T12:59:12.688Z,63.80
2023-04-10T13:01:40.036Z,63.30
2023-04-10T13:04:07.406Z,63.40
2023-04-10T13:06:45.997Z,63.00
2023-04-10T13:09:13.808Z,62.50
2023-04-10T13:11:41.817Z,62.00
2023-04-10T13:14:09.608Z,62.20
2023-04-10T13:16:36.789Z,62.80
2023-04-10T13:19:03.879Z,62.40
2023-04-10T13:21:30.834Z,63.00
2023-04-10T13:23:58.414Z,62.50
2023-04-10T13:26:28.598Z,62.30
2023-04-10T13:29:40.266Z,61.80
2023-04-10T13:32:07.994Z,61.40
2023-04-10T13:34:35.578Z,61.30
2023-04-10T13:37:03.171Z,61.20
2023-04-10T13:39:31.821Z,61.50
2023-04-10T13:41:59.799Z,62.30
2023-04-10T13:44:27.048Z,62.00
2023-04-10T13:46:54.213Z,61.30
2023-04-10T13:49:22.207Z,62.00
2023-04-10T13:51:50.074Z,61.70
2023-04-10T13:54:20.157Z,61.80
2023-04-10T13:56:50.037Z,61.00
2023-04-10T13:59:22.811Z,61.10
2023-04-10T14:01:52.557Z,61.50
2023-04-10T14:04:19.971Z,61.20
2023-04-10T14:06:46.992Z,61.20
2023-04-10T14:09:13.972Z,60.90
2023-04-10T14:11:40.845Z,60.50
2023-04-10T14:16:50.050Z,60.50
2023-04-10T14:19:17.562Z,60.40
2023-04-10T14:21:44.651Z,60.90
2023-04-10T14:24:12.290Z,61.00
2023-04-10T14:26:39.373Z,60.90
2023-04-10T14:29:08.656Z,60.80
2023-04-10T14:31:41.461Z,60.30
2023-04-10T14:34:18.246Z,60.20
2023-04-10T14:36:45.475Z,60.60
2023-04-10T14:39:12.379Z,60.70
2023-04-10T14:41:39.351Z,60.40
2023-04-10T14:44:06.320Z,60.90
2023-04-10T14:46:33.286Z,60.90
2023-04-10T14:49:00.293Z,60.60
2023-04-10T14:51:27.777Z,60.10
2023-04-10T14:53:54.936Z,60.30
2023-04-10T14:56:22.065Z,60.90
2023-04-10T14:58:48.983Z,60.50
2023-04-10T15:01:16.703Z,60.50
2023-04-10T15:03:47.317Z,60.40
2023-04-10T15:06:14.408Z,60.60
2023-04-10T15:08:41.232Z,60.90
2023-04-10T15:11:08.086Z,60.40
2023-04-10T15:13:36.280Z,60.60
2023-04-10T15:16:03.113Z,60.60
2023-04-10T15:18:29.940Z,60.30
2023-04-10T15:20:58.007Z,60.40
2023-04-10T15:23:25.211Z,60.70
2023-04-10T15:25:52.103Z,60.30
2023-04-10T15:28:18.967Z,60.50
2023-04-10T15:30:45.931Z,60.80
2023-04-10T15:33:12.704Z,60.20
2023-04-10T15:35:39.569Z,60.50
2023-04-10T15:38:06.712Z,60.60
2023-04-10T15:40:36.689Z,61.00
2023-04-10T15:43:04.577Z,61.00
2023-04-10T15:45:31.674Z,60.70
2023-04-10T15:48:01.340Z,61.10
2023-04-10T15:50:28.254Z,61.00
2023-04-10T15:52:55.253Z,61.00
2023-04-10T15:55:22.256Z,60.80
2023-04-10T15:57:49.141Z,61.20
2023-04-10T16:00:16.317Z,61.20
2023-04-10T16:02:45.663Z,61.10
2023-04-10T16:05:12.737Z,61.10
2023-04-10T16:07:42.099Z,61.00
2023-04-10T16:10:09.376Z,61.20
2023-04-10T16:12:36.397Z,61.30
2023-04-10T16:15:04.716Z,61.40
2023-04-10T16:17:31.645Z,61.20
2023-04-10T16:19:58.782Z,61.20
2023-04-10T16:22:27.365Z,61.00
2023-04-10T16:24:57.633Z,61.40
2023-04-10T16:27:24.592Z,61.30
2023-04-10T16:29:51.458Z,61.30
2023-04-10T16:32:19.967Z,61.20
2023-04-10T16:34:47.426Z,61.30
2023-04-10T16:37:14.275Z,61.60
2023-04-10T16:39:41.100Z,61.40
2023-04-10T16:42:08.300Z,61.30
2023-04-10T16:44:35.503Z,61.50
2023-04-10T16:47:02.400Z,61.30
2023-04-10T16:49:29.392Z,61.40
2023-04-10T16:51:56.244Z,61.30
2023-04-10T16:54:23.078Z,61.20
2023-04-10T16:56:50.475Z,61.30
2023-04-10T16:59:17.367Z,61.20
2023-04-10T17:01:44.182Z,61.00
2023-04-10T17:04:11.691Z,61.10
2023-04-10T17:06:38.682Z,61.20
2023-04-10T17:09:05.595Z,61.40
2023-04-10T17:11:32.415Z,61.40
2023-04-10T17:13:59.434Z,61.30
2023-04-10T17:16:27.415Z,61.20
2023-04-10T17:18:54.925Z,61.20
2023-04-10T17:21:22.275Z,61.20
2023-04-10T17:23:49.226Z,61.40
2023-04-10T17:26:17.066Z,61.40
2023-04-10T17:28:45.301Z,61.40
2023-04-10T17:31:16.366Z,61.50
2023-04-10T17:33:43.577Z,61.50
2023-04-10T17:36:12.499Z,61.40
2023-04-10T17:38:41.091Z,61.50
2023-04-10T17:41:09.240Z,61.70
2023-04-10T17:43:36.750Z,61.50
2023-04-10T17:46:03.773Z,61.40
2023-04-10T17:48:30.925Z,61.30
2023-04-10T17:50:58.120Z,61.20
2023-04-10T17:53:25.337Z,61.00
2023-04-10T17:55:52.159Z,61.00
2023-04-10T17:58:18.998Z,60.70
2023-04-10T18:00:46.604Z,60.70
2023-04-10T18:03:13.543Z,60.60
2023-04-10T18:05:40.695Z,60.60
2023-04-10T18:08:08.663Z,60.70
2023-04-10T18:10:36.004Z,60.50
2023-04-10T18:13:03.048Z,60.50
2023-04-10T18:15:29.929Z,60.60
2023-04-10T18:17:56.854Z,60.80
2023-04-10T18:20:23.830Z,60.70
2023-04-10T18:22:50.671Z,60.80
2023-04-10T18:25:18.261Z,61.00
2023-04-10T18:27:59.760Z,60.70
2023-04-10T18:30:33.263Z,60.90
2023-04-10T18:33:00.151Z,60.70
2023-04-10T18:35:27.057Z,60.80
2023-04-10T18:37:53.849Z,61.00
2023-04-10T18:40:22.529Z,61.20
2023-04-10T18:42:49.331Z,61.20
2023-04-10T18:45:16.494Z,61.00
2023-04-10T18:47:43.386Z,61.10
2023-04-10T18:50:11.700Z,61.20
2023-04-10T18:52:38.826Z,61.10
2023-04-10T18:55:05.970Z,61.20
2023-04-10T18:57:32.967Z,61.30
2023-04-10T19:00:00.384Z,61.30
2023-04-10T19:02:28.056Z,61.30
2023-04-10T19:04:55.055Z,61.30
2023-04-10T19:07:21.881Z,61.60
2023-04-10T19:09:48.756Z,61.50
2023-04-10T19:12:15.731Z,61.50
2023-04-10T19:14:42.655Z,61.60
2023-04-10T19:17:09.523Z,61.40
2023-04-10T19:19:36.406Z,61.50
2023-04-10T19:22:03.238Z,61.60
2023-04-10T19:24:32.385Z,61.60
2023-04-10T19:27:00.752Z,61.60
2023-04-10T19:29:27.672Z,61.60
2023-04-10T19:31:54.570Z,61.80
2023-04-10T19:34:22.482Z,61.80
2023-04-10T19:36:49.368Z,61.70
2023-04-10T19:39:16.265Z,61.80
2023-04-10T19:41:44.090Z,61.60
2023-04-10T19:44:11.261Z,61.80
2023-04-10T19:46:38.560Z,61.70
2023-04-10T19:49:05.675Z,61.80
2023-04-10T19:51:32.525Z,61.80
2023-04-10T19:53:59.586Z,61.80
2023-04-10T19:56:27.788Z,61.90
2023-04-10T19:58:54.905Z,61.90
2023-04-10T20:01:24.292Z,62.00
2023-04-10T20:03:54.499Z,62.00
2023-04-10T20:06:21.796Z,62.00
2023-04-10T20:08:48.944Z,62.10
2023-04-10T20:11:16.495Z,62.00
2023-04-10T20:13:43.650Z,62.20
2023-04-10T20:16:10.744Z,62.20
2023-04-10T20:18:38.300Z,62.30
2023-04-10T20:21:07.602Z,62.30
2023-04-10T20:23:34.400Z,62.30
2023-04-10T20:26:01.198Z,62.50
2023-04-10T20:28:28.026Z,62.40
2023-04-10T20:30:54.897Z,62.40
2023-04-10T20:33:21.687Z,62.30
2023-04-10T20:35:48.909Z,62.60
2023-04-10T20:38:18.043Z,62.50
2023-04-10T20:40:45.670Z,62.70
2023-04-10T20:43:13.573Z,62.70
2023-04-10T20:45:41.017Z,62.50
2023-04-10T20:48:09.326Z,62.60
2023-04-10T20:50:37.255Z,62.80
2023-04-10T20:53:04.196Z,62.70
2023-04-10T20:55:31.082Z,62.50
2023-04-10T20:57:58.739Z,62.40
2023-04-10T21:00:25.838Z,62.40
2023-04-10T21:02:52.952Z,62.40
2023-04-10T21:05:19.995Z,62.40
2023-04-10T21:07:46.836Z,62.40
2023-04-10T21:10:13.834Z,62.20
2023-04-10T21:12:40.749Z,62.20
2023-04-10T21:15:08.386Z,62.40
2023-04-10T21:17:35.318Z,62.40
2023-04-10T21:20:02.218Z,62.50
2023-04-10T21:22:29.586Z,62.60
2023-04-10T21:24:56.528Z,62.80
2023-04-10T21:27:23.804Z,62.90
2023-04-10T21:29:50.770Z,62.70
2023-04-10T21:32:17.649Z,62.90
2023-04-10T21:34:44.538Z,63.10
2023-04-10T21:37:11.407Z,63.10
2023-04-10T21:39:41.246Z,63.10
2023-04-10T21:42:08.222Z,63.00
2023-04-10T21:44:35.025Z,63.20
2023-04-10T21:47:01.904Z,63.10
2023-04-10T21:49:28.710Z,62.90
2023-04-10T21:51:55.568Z,63.10
2023-04-10T21:54:22.344Z,63.10
2023-04-10T21:56:49.230Z,63.10
2023-04-10T21:59:16.022Z,63.20
2023-04-10T22:01:43.917Z,62.90
2023-04-10T22:04:11.352Z,62.80
2023-04-10T22:06:38.288Z,63.10
2023-04-10T22:09:05.085Z,62.80
2023-04-10T22:11:33.351Z,63.00
2023-04-10T22:14:05.865Z,63.20
2023-04-10T22:16:39.907Z,63.30
2023-04-10T22:19:06.746Z,63.40
2023-04-10T22:21:33.572Z,63.40
2023-04-10T22:24:00.501Z,62.90
2023-04-10T22:26:27.325Z,63.10
2023-04-10T22:28:54.377Z,63.70
2023-04-10T22:31:21.525Z,64.00
2023-04-10T22:33:49.327Z,64.90
2023-04-10T22:36:16.174Z,66.40
2023-04-10T22:38:43.238Z,70.20
2023-04-10T22:41:10.995Z,74.90
2023-04-10T22:43:37.798Z,78.60
2023-04-10T22:46:04.953Z,81.70
2023-04-10T22:48:32.664Z,83.00
2023-04-10T22:50:59.498Z,84.60
2023-04-10T22:53:28.674Z,85.50
2023-04-10T22:55:55.491Z,86.60
2023-04-10T22:58:22.316Z,87.20
2023-04-10T23:00:49.165Z,88.20
2023-04-10T23:03:15.948Z,88.90
2023-04-10T23:05:42.873Z,89.60
2023-04-10T23:08:09.665Z,90.10
2023-04-10T23:10:36.479Z,90.40
2023-04-10T23:13:03.304Z,90.50
2023-04-10T23:15:30.151Z,90.70
2023-04-10T23:17:57.036Z,90.80
2023-04-10T23:20:24.928Z,90.70
2023-04-10T23:22:51.847Z,90.80
2023-04-10T23:25:18.647Z,91.00
2023-04-10T23:27:45.489Z,91.20
2023-04-10T23:30:12.435Z,91.30
2023-04-10T23:32:39.289Z,91.50
2023-04-10T23:35:06.567Z,91.70
2023-04-10T23:37:33.982Z,92.10
2023-04-10T23:40:00.815Z,92.10
2023-04-10T23:42:27.724Z,92.50
2023-04-10T23:44:54.655Z,92.70
2023-04-10T23:47:21.572Z,92.90
2023-04-10T23:49:48.480Z,93.00
2023-04-10T23:52:15.331Z,93.10
2023-04-10T23:54:43.728Z,93.40
2023-04-10T23:57:10.668Z,93.50
2023-04-10T23:59:37.507Z,93.80
